X  Fermer Données météorologiques d'aviation de Metar     EHRD Rotterdam The Hague Airport
Température
0°C Température
0°C Point de rosée
100% Humidité



Vent
2 KM/H
1 MPH
0 M/S
1 KTS



Calme
Nord
Conditions actuelles

Brouillard Brouillard
Pression 1027.92 (hPa) - 30.35 (inHg)
Visibilité 0.4 (mile) - 0.6 (km)
Aéroport
Code de l'aéroport EHRD

Emplacement: Rotterdam The Hague Airport
Distance: 16 (km)

Metar:
EHRD 010555Z AUTO VRB01KT 0600 R06/0700D FG FEW000 BKN038 00/00 Q1028 TEMPO 1200 BCFG

Temps: 01-12-2022 06:55 CET